sensor_id;sensor_type;location;lat;lon;timestamp;pressure;altitude;pressure_sealevel;temperature
43802;BMP280;29429;51.074;13.764;2023-11-19T00:01:48;100041.59;;;6.68
43802;BMP280;29429;51.074;13.764;2023-11-19T00:04:15;100024.06;;;6.67
43802;BMP280;29429;51.074;13.764;2023-11-19T00:06:42;100008.50;;;6.64
43802;BMP280;29429;51.074;13.764;2023-11-19T00:09:09;100018.59;;;6.68
43802;BMP280;29429;51.074;13.764;2023-11-19T00:11:36;99984.66;;;6.64
43802;BMP280;29429;51.074;13.764;2023-11-19T00:14:03;99981.19;;;6.63
43802;BMP280;29429;51.074;13.764;2023-11-19T00:16:30;99957.38;;;6.55
43802;BMP280;29429;51.074;13.764;2023-11-19T00:18:58;99965.66;;;6.52
43802;BMP280;29429;51.074;13.764;2023-11-19T00:21:26;99969.31;;;6.51
43802;BMP280;29429;51.074;13.764;2023-11-19T00:23:55;99965.06;;;6.42
43802;BMP280;29429;51.074;13.764;2023-11-19T00:26:22;99974.81;;;6.42
43802;BMP280;29429;51.074;13.764;2023-11-19T00:28:52;99965.09;;;6.34
43802;BMP280;29429;51.074;13.764;2023-11-19T00:31:20;99942.44;;;6.32
43802;BMP280;29429;51.074;13.764;2023-11-19T00:33:47;99956.97;;;6.36
43802;BMP280;29429;51.074;13.764;2023-11-19T00:36:16;99950.03;;;6.35
43802;BMP280;29429;51.074;13.764;2023-11-19T00:38:43;99946.75;;;6.33
43802;BMP280;29429;51.074;13.764;2023-11-19T00:41:11;99954.50;;;6.34
43802;BMP280;29429;51.074;13.764;2023-11-19T00:43:38;99953.03;;;6.32
43802;BMP280;29429;51.074;13.764;2023-11-19T00:46:07;99938.13;;;6.31
43802;BMP280;29429;51.074;13.764;2023-11-19T00:48:35;99934.31;;;6.33
43802;BMP280;29429;51.074;13.764;2023-11-19T00:51:02;99933.84;;;6.30
43802;BMP280;29429;51.074;13.764;2023-11-19T00:53:30;99921.94;;;6.26
43802;BMP280;29429;51.074;13.764;2023-11-19T00:55:58;99924.56;;;6.26
43802;BMP280;29429;51.074;13.764;2023-11-19T00:58:26;99923.75;;;6.25
43802;BMP280;29429;51.074;13.764;2023-11-19T01:00:52;99897.09;;;6.27
43802;BMP280;29429;51.074;13.764;2023-11-19T01:03:20;99894.81;;;6.24
43802;BMP280;29429;51.074;13.764;2023-11-19T01:05:47;99897.75;;;6.29
43802;BMP280;29429;51.074;13.764;2023-11-19T01:08:14;99890.00;;;6.27
43802;BMP280;29429;51.074;13.764;2023-11-19T01:10:42;99865.16;;;6.28
43802;BMP280;29429;51.074;13.764;2023-11-19T01:13:09;99855.38;;;6.29
43802;BMP280;29429;51.074;13.764;2023-11-19T01:15:37;99838.03;;;6.26
43802;BMP280;29429;51.074;13.764;2023-11-19T01:18:04;99842.47;;;6.26
43802;BMP280;29429;51.074;13.764;2023-11-19T01:20:31;99836.31;;;6.33
43802;BMP280;29429;51.074;13.764;2023-11-19T01:23:01;99830.22;;;6.33
43802;BMP280;29429;51.074;13.764;2023-11-19T01:25:27;99844.09;;;6.35
43802;BMP280;29429;51.074;13.764;2023-11-19T01:27:54;99843.75;;;6.38
43802;BMP280;29429;51.074;13.764;2023-11-19T01:30:25;99840.22;;;6.45
43802;BMP280;29429;51.074;13.764;2023-11-19T01:32:52;99831.09;;;6.48
43802;BMP280;29429;51.074;13.764;2023-11-19T01:35:19;99821.50;;;6.47
43802;BMP280;29429;51.074;13.764;2023-11-19T01:37:47;99817.03;;;6.47
43802;BMP280;29429;51.074;13.764;2023-11-19T01:40:14;99817.50;;;6.51
43802;BMP280;29429;51.074;13.764;2023-11-19T01:42:42;99794.47;;;6.51
43802;BMP280;29429;51.074;13.764;2023-11-19T01:45:10;99790.00;;;6.52
43802;BMP280;29429;51.074;13.764;2023-11-19T01:47:43;99780.41;;;6.51
43802;BMP280;29429;51.074;13.764;2023-11-19T01:50:10;99787.00;;;6.55
43802;BMP280;29429;51.074;13.764;2023-11-19T01:52:38;99779.53;;;6.58
43802;BMP280;29429;51.074;13.764;2023-11-19T01:55:09;99763.78;;;6.57
43802;BMP280;29429;51.074;13.764;2023-11-19T01:57:37;99763.09;;;6.63
43802;BMP280;29429;51.074;13.764;2023-11-19T02:00:08;99761.53;;;6.68
43802;BMP280;29429;51.074;13.764;2023-11-19T02:02:44;99747.75;;;6.73
43802;BMP280;29429;51.074;13.764;2023-11-19T02:05:12;99736.72;;;6.69
43802;BMP280;29429;51.074;13.764;2023-11-19T02:07:40;99726.53;;;6.73
43802;BMP280;29429;51.074;13.764;2023-11-19T02:10:07;99728.84;;;6.76
43802;BMP280;29429;51.074;13.764;2023-11-19T02:12:43;99719.72;;;6.79
43802;BMP280;29429;51.074;13.764;2023-11-19T02:15:10;99730.78;;;6.82
43802;BMP280;29429;51.074;13.764;2023-11-19T02:17:37;99721.81;;;6.83
43802;BMP280;29429;51.074;13.764;2023-11-19T02:20:05;99709.22;;;6.85
43802;BMP280;29429;51.074;13.764;2023-11-19T02:22:38;99703.56;;;6.88
43802;BMP280;29429;51.074;13.764;2023-11-19T02:25:12;99682.72;;;6.85
43802;BMP280;29429;51.074;13.764;2023-11-19T02:27:55;99678.41;;;6.84
43802;BMP280;29429;51.074;13.764;2023-11-19T02:30:24;99674.94;;;6.84
43802;BMP280;29429;51.074;13.764;2023-11-19T02:32:57;99667.81;;;6.84
43802;BMP280;29429;51.074;13.764;2023-11-19T02:35:25;99668.00;;;6.83
43802;BMP280;29429;51.074;13.764;2023-11-19T02:37:58;99661.88;;;6.82
43802;BMP280;29429;51.074;13.764;2023-11-19T02:40:30;99651.06;;;6.84
43802;BMP280;29429;51.074;13.764;2023-11-19T02:42:57;99640.66;;;6.82
43802;BMP280;29429;51.074;13.764;2023-11-19T02:45:26;99643.31;;;6.82
43802;BMP280;29429;51.074;13.764;2023-11-19T02:47:54;99638.84;;;6.83
43802;BMP280;29429;51.074;13.764;2023-11-19T02:50:25;99636.19;;;6.83
43802;BMP280;29429;51.074;13.764;2023-11-19T02:52:55;99629.72;;;6.85
43802;BMP280;29429;51.074;13.764;2023-11-19T02:55:25;99627.69;;;6.87
43802;BMP280;29429;51.074;13.764;2023-11-19T02:57:55;99620.09;;;6.84
43802;BMP280;29429;51.074;13.764;2023-11-19T03:00:23;99606.03;;;6.84
43802;BMP280;29429;51.074;13.764;2023-11-19T03:02:58;99595.41;;;6.84
43802;BMP280;29429;51.074;13.764;2023-11-19T03:05:27;99596.16;;;6.92
43802;BMP280;29429;51.074;13.764;2023-11-19T03:07:57;99595.94;;;6.94
43802;BMP280;29429;51.074;13.764;2023-11-19T03:10:24;99578.78;;;6.90
43802;BMP280;29429;51.074;13.764;2023-11-19T03:12:51;99578.41;;;6.93
43802;BMP280;29429;51.074;13.764;2023-11-19T03:15:18;99574.38;;;6.97
43802;BMP280;29429;51.074;13.764;2023-11-19T03:17:45;99571.09;;;6.95
43802;BMP280;29429;51.074;13.764;2023-11-19T03:20:12;99569.53;;;7.00
43802;BMP280;29429;51.074;13.764;2023-11-19T03:22:44;99568.91;;;6.98
43802;BMP280;29429;51.074;13.764;2023-11-19T03:25:11;99562.78;;;6.98
43802;BMP280;29429;51.074;13.764;2023-11-19T03:27:39;99541.78;;;6.96
43802;BMP280;29429;51.074;13.764;2023-11-19T03:30:09;99536.47;;;6.96
43802;BMP280;29429;51.074;13.764;2023-11-19T03:32:37;99533.16;;;6.94
43802;BMP280;29429;51.074;13.764;2023-11-19T03:35:06;99548.53;;;6.99
43802;BMP280;29429;51.074;13.764;2023-11-19T03:37:34;99544.03;;;6.99
43802;BMP280;29429;51.074;13.764;2023-11-19T03:40:01;99536.53;;;7.03
43802;BMP280;29429;51.074;13.764;2023-11-19T03:42:29;99524.72;;;7.05
43802;BMP280;29429;51.074;13.764;2023-11-19T03:44:57;99529.66;;;7.08
43802;BMP280;29429;51.074;13.764;2023-11-19T03:47:24;99521.06;;;7.06
43802;BMP280;29429;51.074;13.764;2023-11-19T03:49:52;99515.19;;;7.11
43802;BMP280;29429;51.074;13.764;2023-11-19T03:52:19;99507.44;;;7.09
43802;BMP280;29429;51.074;13.764;2023-11-19T03:54:47;99503.34;;;7.07
43802;BMP280;29429;51.074;13.764;2023-11-19T03:57:14;99491.72;;;7.08
43802;BMP280;29429;51.074;13.764;2023-11-19T03:59:42;99489.63;;;7.03
43802;BMP280;29429;51.074;13.764;2023-11-19T04:02:09;99482.31;;;7.05
43802;BMP280;29429;51.074;13.764;2023-11-19T04:04:37;99488.59;;;7.04
43802;BMP280;29429;51.074;13.764;2023-11-19T04:07:06;99479.03;;;7.03
43802;BMP280;29429;51.074;13.764;2023-11-19T04:09:33;99475.34;;;7.04
43802;BMP280;29429;51.074;13.764;2023-11-19T04:12:00;99471.31;;;7.08
43802;BMP280;29429;51.074;13.764;2023-11-19T04:14:27;99465.81;;;7.10
43802;BMP280;29429;51.074;13.764;2023-11-19T04:16:54;99465.66;;;7.11
43802;BMP280;29429;51.074;13.764;2023-11-19T04:19:22;99454.00;;;7.12
43802;BMP280;29429;51.074;13.764;2023-11-19T04:21:50;99452.16;;;7.06
43802;BMP280;29429;51.074;13.764;2023-11-19T04:24:17;99460.09;;;7.06
43802;BMP280;29429;51.074;13.764;2023-11-19T04:26:45;99462.38;;;7.09
43802;BMP280;29429;51.074;13.764;2023-11-19T04:29:14;99465.81;;;7.10
43802;BMP280;29429;51.074;13.764;2023-11-19T04:31:41;99454.78;;;7.06
43802;BMP280;29429;51.074;13.764;2023-11-19T04:34:09;99442.38;;;7.07
43802;BMP280;29429;51.074;13.764;2023-11-19T04:36:35;99439.50;;;7.08
43802;BMP280;29429;51.074;13.764;2023-11-19T04:39:04;99437.69;;;7.09
43802;BMP280;29429;51.074;13.764;2023-11-19T04:41:49;99441.59;;;7.13
43802;BMP280;29429;51.074;13.764;2023-11-19T04:44:17;99434.22;;;7.08
43802;BMP280;29429;51.074;13.764;2023-11-19T04:46:44;99432.50;;;7.01
43802;BMP280;29429;51.074;13.764;2023-11-19T04:49:13;99430.03;;;6.99
43802;BMP280;29429;51.074;13.764;2023-11-19T04:51:45;99427.22;;;7.01
43802;BMP280;29429;51.074;13.764;2023-11-19T04:54:15;99414.34;;;6.98
43802;BMP280;29429;51.074;13.764;2023-11-19T04:56:45;99398.56;;;6.90
43802;BMP280;29429;51.074;13.764;2023-11-19T04:59:13;99403.97;;;6.82
43802;BMP280;29429;51.074;13.764;2023-11-19T05:01:40;99404.19;;;6.80
43802;BMP280;29429;51.074;13.764;2023-11-19T05:04:07;99404.56;;;6.77
43802;BMP280;29429;51.074;13.764;2023-11-19T05:06:35;99405.19;;;6.79
43802;BMP280;29429;51.074;13.764;2023-11-19T05:09:02;99395.19;;;6.81
43802;BMP280;29429;51.074;13.764;2023-11-19T05:11:34;99387.25;;;6.81
43802;BMP280;29429;51.074;13.764;2023-11-19T05:14:05;99401.13;;;6.83
43802;BMP280;29429;51.074;13.764;2023-11-19T05:16:32;99388.91;;;6.82
43802;BMP280;29429;51.074;13.764;2023-11-19T05:18:59;99393.97;;;6.77
43802;BMP280;29429;51.074;13.764;2023-11-19T05:21:26;99392.31;;;6.76
43802;BMP280;29429;51.074;13.764;2023-11-19T05:23:53;99384.09;;;6.71
43802;BMP280;29429;51.074;13.764;2023-11-19T05:26:23;99386.19;;;6.75
43802;BMP280;29429;51.074;13.764;2023-11-19T05:28:50;99365.94;;;6.68
43802;BMP280;29429;51.074;13.764;2023-11-19T05:31:18;99368.16;;;6.64
43802;BMP280;29429;51.074;13.764;2023-11-19T05:33:45;99358.47;;;6.57
43802;BMP280;29429;51.074;13.764;2023-11-19T05:36:12;99360.34;;;6.56
43802;BMP280;29429;51.074;13.764;2023-11-19T05:38:40;99358.31;;;6.58
43802;BMP280;29429;51.074;13.764;2023-11-19T05:41:07;99348.34;;;6.60
43802;BMP280;29429;51.074;13.764;2023-11-19T05:43:34;99344.03;;;6.59
43802;BMP280;29429;51.074;13.764;2023-11-19T05:46:01;99349.34;;;6.59
43802;BMP280;29429;51.074;13.764;2023-11-19T05:48:29;99356.09;;;6.62
43802;BMP280;29429;51.074;13.764;2023-11-19T05:50:55;99352.25;;;6.64
43802;BMP280;29429;51.074;13.764;2023-11-19T05:53:23;99343.88;;;6.61
43802;BMP280;29429;51.074;13.764;2023-11-19T05:55:50;99346.50;;;6.61
43802;BMP280;29429;51.074;13.764;2023-11-19T05:58:26;99344.50;;;6.63
43802;BMP280;29429;51.074;13.764;2023-11-19T06:00:56;99332.19;;;6.55
43802;BMP280;29429;51.074;13.764;2023-11-19T06:03:23;99341.59;;;6.58
43802;BMP280;29429;51.074;13.764;2023-11-19T06:05:50;99326.06;;;6.55
43802;BMP280;29429;51.074;13.764;2023-11-19T06:08:18;99316.09;;;6.57
43802;BMP280;29429;51.074;13.764;2023-11-19T06:10:47;99316.31;;;6.55
43802;BMP280;29429;51.074;13.764;2023-11-19T06:13:14;99297.56;;;6.57
43802;BMP280;29429;51.074;13.764;2023-11-19T06:15:43;99297.31;;;6.52
43802;BMP280;29429;51.074;13.764;2023-11-19T06:18:10;99296.75;;;6.56
43802;BMP280;29429;51.074;13.764;2023-11-19T06:20:40;99291.88;;;6.60
43802;BMP280;29429;51.074;13.764;2023-11-19T06:23:10;99269.94;;;6.66
43802;BMP280;29429;51.074;13.764;2023-11-19T06:25:37;99271.00;;;6.71
43802;BMP280;29429;51.074;13.764;2023-11-19T06:28:04;99264.88;;;6.71
43802;BMP280;29429;51.074;13.764;2023-11-19T06:30:31;99264.50;;;6.74
43802;BMP280;29429;51.074;13.764;2023-11-19T06:32:59;99266.38;;;6.80
43802;BMP280;29429;51.074;13.764;2023-11-19T06:35:27;99255.81;;;6.87
43802;BMP280;29429;51.074;13.764;2023-11-19T06:37:57;99263.19;;;6.91
43802;BMP280;29429;51.074;13.764;2023-11-19T06:40:24;99271.41;;;6.96
43802;BMP280;29429;51.074;13.764;2023-11-19T06:42:52;99270.38;;;6.97
43802;BMP280;29429;51.074;13.764;2023-11-19T06:45:19;99271.00;;;6.99
43802;BMP280;29429;51.074;13.764;2023-11-19T06:47:46;99276.28;;;6.99
43802;BMP280;29429;51.074;13.764;2023-11-19T06:50:13;99258.78;;;6.98
43802;BMP280;29429;51.074;13.764;2023-11-19T06:52:41;99264.06;;;6.98
43802;BMP280;29429;51.074;13.764;2023-11-19T06:55:08;99263.28;;;7.04
43802;BMP280;29429;51.074;13.764;2023-11-19T06:57:35;99261.72;;;7.16
43802;BMP280;29429;51.074;13.764;2023-11-19T07:00:05;99251.56;;;7.20
43802;BMP280;29429;51.074;13.764;2023-11-19T07:02:33;99242.19;;;7.24
43802;BMP280;29429;51.074;13.764;2023-11-19T07:05:00;99246.34;;;7.33
43802;BMP280;29429;51.074;13.764;2023-11-19T07:07:27;99245.13;;;7.35
43802;BMP280;29429;51.074;13.764;2023-11-19T07:09:53;99255.34;;;7.39
43802;BMP280;29429;51.074;13.764;2023-11-19T07:12:21;99254.13;;;7.41
43802;BMP280;29429;51.074;13.764;2023-11-19T07:14:48;99273.94;;;7.45
43802;BMP280;29429;51.074;13.764;2023-11-19T07:17:15;99267.41;;;7.48
43802;BMP280;29429;51.074;13.764;2023-11-19T07:19:42;99270.28;;;7.53
43802;BMP280;29429;51.074;13.764;2023-11-19T07:22:09;99268.91;;;7.57
43802;BMP280;29429;51.074;13.764;2023-11-19T07:24:41;99264.44;;;7.64
43802;BMP280;29429;51.074;13.764;2023-11-19T07:27:09;99268.50;;;7.66
43802;BMP280;29429;51.074;13.764;2023-11-19T07:29:36;99276.69;;;7.71
43802;BMP280;29429;51.074;13.764;2023-11-19T07:32:05;99284.06;;;7.76
43802;BMP280;29429;51.074;13.764;2023-11-19T07:34:32;99294.09;;;7.80
43802;BMP280;29429;51.074;13.764;2023-11-19T07:36:59;99277.97;;;7.82
43802;BMP280;29429;51.074;13.764;2023-11-19T07:39:29;99268.19;;;7.89
43802;BMP280;29429;51.074;13.764;2023-11-19T07:41:56;99277.41;;;7.93
43802;BMP280;29429;51.074;13.764;2023-11-19T07:44:24;99271.47;;;7.97
43802;BMP280;29429;51.074;13.764;2023-11-19T07:46:51;99275.63;;;8.07
43802;BMP280;29429;51.074;13.764;2023-11-19T07:49:18;99264.59;;;8.10
43802;BMP280;29429;51.074;13.764;2023-11-19T07:51:45;99272.38;;;8.18
43802;BMP280;29429;51.074;13.764;2023-11-19T07:54:12;99275.84;;;8.25
43802;BMP280;29429;51.074;13.764;2023-11-19T07:56:40;99279.56;;;8.30
43802;BMP280;29429;51.074;13.764;2023-11-19T07:59:07;99272.81;;;8.34
43802;BMP280;29429;51.074;13.764;2023-11-19T08:01:34;99285.91;;;8.42
43802;BMP280;29429;51.074;13.764;2023-11-19T08:04:01;99292.25;;;8.48
43802;BMP280;29429;51.074;13.764;2023-11-19T08:06:29;99276.53;;;8.46
43802;BMP280;29429;51.074;13.764;2023-11-19T08:08:56;99272.22;;;8.45
43802;BMP280;29429;51.074;13.764;2023-11-19T08:11:23;99284.50;;;8.46
43802;BMP280;29429;51.074;13.764;2023-11-19T08:13:50;99283.28;;;8.49
43802;BMP280;29429;51.074;13.764;2023-11-19T08:16:17;99275.69;;;8.52
43802;BMP280;29429;51.074;13.764;2023-11-19T08:18:44;99278.78;;;8.56
43802;BMP280;29429;51.074;13.764;2023-11-19T08:21:11;99275.50;;;8.61
43802;BMP280;29429;51.074;13.764;2023-11-19T08:23:38;99262.84;;;8.56
43802;BMP280;29429;51.074;13.764;2023-11-19T08:26:06;99269.59;;;8.58
43802;BMP280;29429;51.074;13.764;2023-11-19T08:28:33;99257.34;;;8.57
43802;BMP280;29429;51.074;13.764;2023-11-19T08:31:02;99256.09;;;8.53
43802;BMP280;29429;51.074;13.764;2023-11-19T08:33:32;99268.16;;;8.49
43802;BMP280;29429;51.074;13.764;2023-11-19T08:35:59;99263.84;;;8.48
43802;BMP280;29429;51.074;13.764;2023-11-19T08:38:26;99265.09;;;8.46
43802;BMP280;29429;51.074;13.764;2023-11-19T08:40:56;99254.25;;;8.47
43802;BMP280;29429;51.074;13.764;2023-11-19T08:43:27;99258.94;;;8.58
43802;BMP280;29429;51.074;13.764;2023-11-19T08:45:54;99260.19;;;8.69
43802;BMP280;29429;51.074;13.764;2023-11-19T08:48:21;99261.63;;;8.78
43802;BMP280;29429;51.074;13.764;2023-11-19T08:50:48;99264.91;;;8.87
43802;BMP280;29429;51.074;13.764;2023-11-19T08:53:15;99266.09;;;8.91
43802;BMP280;29429;51.074;13.764;2023-11-19T08:55:42;99280.22;;;8.98
43802;BMP280;29429;51.074;13.764;2023-11-19T08:58:10;99280.19;;;9.11
43802;BMP280;29429;51.074;13.764;2023-11-19T09:00:36;99286.53;;;9.23
43802;BMP280;29429;51.074;13.764;2023-11-19T09:03:03;99276.50;;;9.32
43802;BMP280;29429;51.074;13.764;2023-11-19T09:05:31;99284.66;;;9.37
43802;BMP280;29429;51.074;13.764;2023-11-19T09:07:58;99286.91;;;9.40
43802;BMP280;29429;51.074;13.764;2023-11-19T09:10:25;99271.56;;;9.42
43802;BMP280;29429;51.074;13.764;2023-11-19T09:12:53;99275.63;;;9.44
43802;BMP280;29429;51.074;13.764;2023-11-19T09:15:24;99263.38;;;9.37
43802;BMP280;29429;51.074;13.764;2023-11-19T09:17:51;99279.72;;;9.47
43802;BMP280;29429;51.074;13.764;2023-11-19T09:20:19;99284.00;;;9.54
43802;BMP280;29429;51.074;13.764;2023-11-19T09:22:46;99285.59;;;9.62
43802;BMP280;29429;51.074;13.764;2023-11-19T09:25:13;99276.38;;;9.71
43802;BMP280;29429;51.074;13.764;2023-11-19T09:27:44;99277.19;;;9.71
43802;BMP280;29429;51.074;13.764;2023-11-19T09:30:12;99287.59;;;9.79
43802;BMP280;29429;51.074;13.764;2023-11-19T09:32:39;99284.50;;;9.82
43802;BMP280;29429;51.074;13.764;2023-11-19T09:35:08;99298.00;;;9.88
43802;BMP280;29429;51.074;13.764;2023-11-19T09:37:35;99290.22;;;9.93
43802;BMP280;29429;51.074;13.764;2023-11-19T09:40:02;99268.22;;;10.04
43802;BMP280;29429;51.074;13.764;2023-11-19T09:42:43;99263.66;;;10.17
43802;BMP280;29429;51.074;13.764;2023-11-19T09:45:17;99269.97;;;10.29
43802;BMP280;29429;51.074;13.764;2023-11-19T09:47:46;99276.47;;;10.40
43802;BMP280;29429;51.074;13.764;2023-11-19T09:50:19;99279.88;;;10.47
43802;BMP280;29429;51.074;13.764;2023-11-19T09:52:47;99267.31;;;10.54
43802;BMP280;29429;51.074;13.764;2023-11-19T09:55:14;99268.69;;;10.63
43802;BMP280;29429;51.074;13.764;2023-11-19T09:57:42;99260.59;;;10.76
43802;BMP280;29429;51.074;13.764;2023-11-19T10:00:13;99258.69;;;10.83
43802;BMP280;29429;51.074;13.764;2023-11-19T10:02:44;99249.50;;;10.79
43802;BMP280;29429;51.074;13.764;2023-11-19T10:05:14;99254.44;;;10.76
43802;BMP280;29429;51.074;13.764;2023-11-19T10:07:42;99252.88;;;10.68
43802;BMP280;29429;51.074;13.764;2023-11-19T10:10:12;99258.19;;;10.68
43802;BMP280;29429;51.074;13.764;2023-11-19T10:12:42;99247.53;;;10.68
43802;BMP280;29429;51.074;13.764;2023-11-19T10:15:25;99245.28;;;10.65
43802;BMP280;29429;51.074;13.764;2023-11-19T10:17:57;99240.72;;;10.72
43802;BMP280;29429;51.074;13.764;2023-11-19T10:20:25;99244.59;;;10.76
43802;BMP280;29429;51.074;13.764;2023-11-19T10:22:53;99231.84;;;10.78
43802;BMP280;29429;51.074;13.764;2023-11-19T10:25:26;99240.16;;;10.88
43802;BMP280;29429;51.074;13.764;2023-11-19T10:27:56;99231.69;;;10.98
43802;BMP280;29429;51.074;13.764;2023-11-19T10:30:26;99231.91;;;11.15
43802;BMP280;29429;51.074;13.764;2023-11-19T10:33:10;99229.25;;;11.33
43802;BMP280;29429;51.074;13.764;2023-11-19T10:35:57;99233.41;;;11.47
43802;BMP280;29429;51.074;13.764;2023-11-19T10:38:28;99240.81;;;11.63
43802;BMP280;29429;51.074;13.764;2023-11-19T10:40:55;99231.06;;;11.75
43802;BMP280;29429;51.074;13.764;2023-11-19T10:43:23;99220.94;;;11.77
43802;BMP280;29429;51.074;13.764;2023-11-19T10:45:51;99225.66;;;11.93
43802;BMP280;29429;51.074;13.764;2023-11-19T10:48:18;99225.94;;;12.03
43802;BMP280;29429;51.074;13.764;2023-11-19T10:50:53;99215.97;;;12.10
43802;BMP280;29429;51.074;13.764;2023-11-19T10:53:24;99217.16;;;12.14
43802;BMP280;29429;51.074;13.764;2023-11-19T10:55:57;99234.78;;;12.15
43802;BMP280;29429;51.074;13.764;2023-11-19T10:58:28;99236.56;;;12.21
43802;BMP280;29429;51.074;13.764;2023-11-19T11:00:59;99240.13;;;12.34
43802;BMP280;29429;51.074;13.764;2023-11-19T11:03:35;99234.31;;;12.48
43802;BMP280;29429;51.074;13.764;2023-11-19T11:06:04;99238.63;;;12.61
43802;BMP280;29429;51.074;13.764;2023-11-19T11:08:31;99235.13;;;12.60
43802;BMP280;29429;51.074;13.764;2023-11-19T11:11:03;99231.69;;;12.60
43802;BMP280;29429;51.074;13.764;2023-11-19T11:13:32;99222.59;;;12.61
43802;BMP280;29429;51.074;13.764;2023-11-19T11:16:01;99211.31;;;12.59
43802;BMP280;29429;51.074;13.764;2023-11-19T11:18:28;99222.94;;;12.64
43802;BMP280;29429;51.074;13.764;2023-11-19T11:24:19;99225.66;;;12.76
43802;BMP280;29429;51.074;13.764;2023-11-19T11:33:15;99244.50;;;12.81
43802;BMP280;29429;51.074;13.764;2023-11-19T11:35:58;99238.66;;;12.84
43802;BMP280;29429;51.074;13.764;2023-11-19T11:38:36;99221.34;;;12.87
43802;BMP280;29429;51.074;13.764;2023-11-19T11:41:23;99220.41;;;12.93
43802;BMP280;29429;51.074;13.764;2023-11-19T11:43:55;99219.38;;;12.94
43802;BMP280;29429;51.074;13.764;2023-11-19T11:49:05;99223.88;;;12.81
43802;BMP280;29429;51.074;13.764;2023-11-19T11:57:08;99233.56;;;12.82
43802;BMP280;29429;51.074;13.764;2023-11-19T12:02:11;99222.50;;;13.02
43802;BMP280;29429;51.074;13.764;2023-11-19T12:04:40;99218.44;;;13.11
43802;BMP280;29429;51.074;13.764;2023-11-19T12:07:23;99217.72;;;13.27
43802;BMP280;29429;51.074;13.764;2023-11-19T12:10:09;99217.00;;;13.43
43802;BMP280;29429;51.074;13.764;2023-11-19T12:12:39;99208.69;;;13.57
43802;BMP280;29429;51.074;13.764;2023-11-19T12:15:09;99207.03;;;13.67
43802;BMP280;29429;51.074;13.764;2023-11-19T12:17:42;99211.78;;;13.77
43802;BMP280;29429;51.074;13.764;2023-11-19T12:20:12;99204.66;;;13.82
43802;BMP280;29429;51.074;13.764;2023-11-19T12:22:41;99192.97;;;13.88
43802;BMP280;29429;51.074;13.764;2023-11-19T12:25:11;99186.66;;;13.94
43802;BMP280;29429;51.074;13.764;2023-11-19T12:27:53;99183.00;;;14.00
43802;BMP280;29429;51.074;13.764;2023-11-19T12:30:23;99181.47;;;14.04
43802;BMP280;29429;51.074;13.764;2023-11-19T12:32:54;99178.59;;;14.23
43802;BMP280;29429;51.074;13.764;2023-11-19T12:35:22;99170.59;;;14.39
43802;BMP280;29429;51.074;13.764;2023-11-19T12:37:51;99169.19;;;14.53
43802;BMP280;29429;51.074;13.764;2023-11-19T12:40:24;99170.34;;;14.74
43802;BMP280;29429;51.074;13.764;2023-11-19T12:42:53;99156.16;;;14.79
43802;BMP280;29429;51.074;13.764;2023-11-19T12:45:22;99168.50;;;14.96
43802;BMP280;29429;51.074;13.764;2023-11-19T12:48:05;99152.50;;;15.06
43802;BMP280;29429;51.074;13.764;2023-11-19T12:50:55;99145.91;;;15.14
43802;BMP280;29429;51.074;13.764;2023-11-19T12:53:25;99137.34;;;15.17
43802;BMP280;29429;51.074;13.764;2023-11-19T12:55:54;99148.59;;;15.14
43802;BMP280;29429;51.074;13.764;2023-11-19T12:58:35;99140.03;;;15.17
43802;BMP280;29429;51.074;13.764;2023-11-19T13:01:06;99134.91;;;15.15
43802;BMP280;29429;51.074;13.764;2023-11-19T13:03:36;99145.16;;;15.18
43802;BMP280;29429;51.074;13.764;2023-11-19T13:06:08;99140.97;;;15.27
43802;BMP280;29429;51.074;13.764;2023-11-19T13:08:43;99138.09;;;15.34
43802;BMP280;29429;51.074;13.764;2023-11-19T13:11:32;99136.19;;;15.30
43802;BMP280;29429;51.074;13.764;2023-11-19T13:14:01;99146.81;;;15.19
43802;BMP280;29429;51.074;13.764;2023-11-19T13:16:31;99154.97;;;15.08
43802;BMP280;29429;51.074;13.764;2023-11-19T13:18:59;99146.72;;;14.76
43802;BMP280;29429;51.074;13.764;2023-11-19T13:21:27;99144.16;;;14.48
43802;BMP280;29429;51.074;13.764;2023-11-19T13:23:55;99134.84;;;14.22
43802;BMP280;29429;51.074;13.764;2023-11-19T13:26:22;99148.97;;;14.01
43802;BMP280;29429;51.074;13.764;2023-11-19T13:28:49;99146.13;;;13.91
43802;BMP280;29429;51.074;13.764;2023-11-19T13:31:16;99147.78;;;13.80
43802;BMP280;29429;51.074;13.764;2023-11-19T13:33:44;99147.84;;;13.69
43802;BMP280;29429;51.074;13.764;2023-11-19T13:36:11;99145.44;;;13.56
43802;BMP280;29429;51.074;13.764;2023-11-19T13:38:42;99154.19;;;13.51
43802;BMP280;29429;51.074;13.764;2023-11-19T13:41:12;99143.84;;;13.55
43802;BMP280;29429;51.074;13.764;2023-11-19T13:43:40;99144.16;;;13.58
43802;BMP280;29429;51.074;13.764;2023-11-19T13:46:07;99144.66;;;13.55
43802;BMP280;29429;51.074;13.764;2023-11-19T13:48:37;99143.75;;;13.50
43802;BMP280;29429;51.074;13.764;2023-11-19T13:51:05;99144.13;;;13.41
43802;BMP280;29429;51.074;13.764;2023-11-19T13:53:32;99151.06;;;13.42
43802;BMP280;29429;51.074;13.764;2023-11-19T13:56:17;99151.78;;;13.50
43802;BMP280;29429;51.074;13.764;2023-11-19T13:58:45;99158.97;;;13.61
43802;BMP280;29429;51.074;13.764;2023-11-19T14:01:12;99152.72;;;13.72
43802;BMP280;29429;51.074;13.764;2023-11-19T14:03:40;99168.50;;;13.85
43802;BMP280;29429;51.074;13.764;2023-11-19T14:06:08;99160.69;;;13.95
43802;BMP280;29429;51.074;13.764;2023-11-19T14:08:35;99152.72;;;14.00
43802;BMP280;29429;51.074;13.764;2023-11-19T14:11:02;99154.66;;;14.04
43802;BMP280;29429;51.074;13.764;2023-11-19T14:13:29;99161.91;;;14.04
43802;BMP280;29429;51.074;13.764;2023-11-19T14:15:56;99154.41;;;14.06
43802;BMP280;29429;51.074;13.764;2023-11-19T14:18:23;99158.66;;;14.02
43802;BMP280;29429;51.074;13.764;2023-11-19T14:20:50;99164.41;;;13.94
43802;BMP280;29429;51.074;13.764;2023-11-19T14:23:17;99164.53;;;13.87
43802;BMP280;29429;51.074;13.764;2023-11-19T14:25:44;99152.34;;;13.80
43802;BMP280;29429;51.074;13.764;2023-11-19T14:28:11;99171.19;;;13.85
43802;BMP280;29429;51.074;13.764;2023-11-19T14:30:38;99166.34;;;13.82
43802;BMP280;29429;51.074;13.764;2023-11-19T14:33:05;99174.38;;;13.82
43802;BMP280;29429;51.074;13.764;2023-11-19T14:35:32;99168.41;;;13.80